createdAt,value
2022-12-26T00:01:41.401Z,69.24
2022-12-26T00:04:51.868Z,69.19
2022-12-26T00:06:58.208Z,69.31
2022-12-26T00:09:27.120Z,69.47
2022-12-26T00:11:55.487Z,69.37
2022-12-26T00:14:23.776Z,69.81
2022-12-26T00:16:53.180Z,69.66
2022-12-26T00:19:21.489Z,70.04
2022-12-26T00:21:50.022Z,70.24
2022-12-26T00:24:18.433Z,70.23
2022-12-26T00:26:46.787Z,70.59
2022-12-26T00:29:15.398Z,70.16
2022-12-26T00:31:43.719Z,70.32
2022-12-26T00:34:15.092Z,70.39
2022-12-26T00:36:42.956Z,70.40
2022-12-26T00:39:11.686Z,70.41
2022-12-26T00:41:40.053Z,70.41
2022-12-26T00:44:08.315Z,70.32
2022-12-26T00:46:36.884Z,70.69
2022-12-26T00:49:05.382Z,70.70
2022-12-26T00:51:33.787Z,70.89
2022-12-26T00:54:02.029Z,70.81
2022-12-26T00:56:30.405Z,70.74
2022-12-26T00:58:58.641Z,71.28
2022-12-26T01:01:27.067Z,71.71
2022-12-26T01:03:55.468Z,71.58
2022-12-26T01:06:23.700Z,71.70
2022-12-26T01:08:53.912Z,71.50
2022-12-26T01:11:42.931Z,71.63
2022-12-26T01:14:19.114Z,71.28
2022-12-26T01:16:48.351Z,70.70
2022-12-26T01:19:16.726Z,70.66
2022-12-26T01:21:45.337Z,71.09
2022-12-26T01:24:14.805Z,71.16
2022-12-26T01:26:43.152Z,71.22
2022-12-26T01:29:11.531Z,71.11
2022-12-26T01:31:40.216Z,71.33
2022-12-26T01:34:08.483Z,71.26
2022-12-26T01:36:36.734Z,71.40
2022-12-26T01:39:05.077Z,71.77
2022-12-26T01:41:34.107Z,72.10
2022-12-26T01:44:47.103Z,72.37
2022-12-26T01:47:16.095Z,73.07
2022-12-26T01:49:48.528Z,72.90
2022-12-26T01:52:49.855Z,73.27
2022-12-26T01:55:21.655Z,73.85
2022-12-26T01:57:58.945Z,73.97
2022-12-26T02:00:27.319Z,73.24
2022-12-26T02:03:14.266Z,72.93
2022-12-26T02:05:44.602Z,72.78
2022-12-26T02:08:30.594Z,72.80
2022-12-26T02:11:15.832Z,73.19
2022-12-26T02:13:44.481Z,72.89
2022-12-26T02:16:17.074Z,73.25
2022-12-26T02:18:45.753Z,73.69
2022-12-26T02:22:04.210Z,74.29
2022-12-26T02:24:51.167Z,73.70
2022-12-26T02:27:37.558Z,73.70
2022-12-26T02:30:21.688Z,73.28
2022-12-26T02:33:31.298Z,74.31
2022-12-26T02:36:31.483Z,75.09
2022-12-26T02:39:45.499Z,74.69
2022-12-26T02:42:54.497Z,73.20
2022-12-26T02:45:47.993Z,73.55
2022-12-26T02:48:22.433Z,73.60
2022-12-26T02:51:19.963Z,73.67
2022-12-26T02:54:17.668Z,73.74
2022-12-26T02:57:11.107Z,74.55
2022-12-26T03:00:05.360Z,74.85
2022-12-26T03:03:18.393Z,75.21
2022-12-26T03:06:25.073Z,74.75
2022-12-26T03:09:16.823Z,74.72
2022-12-26T03:12:08.140Z,75.33
2022-12-26T03:14:49.412Z,75.15
2022-12-26T03:17:31.851Z,75.50
2022-12-26T03:20:07.294Z,75.03
2022-12-26T03:22:54.766Z,75.00
2022-12-26T03:26:07.707Z,75.34
2022-12-26T03:28:36.172Z,75.11
2022-12-26T03:31:08.607Z,75.47
2022-12-26T03:33:59.424Z,75.75
2022-12-26T03:37:04.385Z,76.10
2022-12-26T03:40:05.857Z,76.41
2022-12-26T03:43:10.262Z,76.55
2022-12-26T03:46:37.002Z,76.13
2022-12-26T03:49:35.251Z,75.43
2022-12-26T03:52:47.482Z,75.18
2022-12-26T03:55:48.461Z,75.00
2022-12-26T03:58:58.039Z,75.23
2022-12-26T04:01:48.626Z,75.21
2022-12-26T04:04:36.951Z,75.17
2022-12-26T04:07:57.878Z,75.19
2022-12-26T04:10:57.340Z,75.75
2022-12-26T04:13:51.553Z,76.01
2022-12-26T04:16:51.289Z,76.46
2022-12-26T04:19:43.459Z,76.26
2022-12-26T04:22:41.381Z,76.47
2022-12-26T04:25:50.420Z,76.76
2022-12-26T04:28:40.938Z,76.88
2022-12-26T04:31:58.875Z,77.47
2022-12-26T04:34:57.782Z,77.64
2022-12-26T04:37:48.525Z,77.63
2022-12-26T04:40:42.351Z,78.30
2022-12-26T04:43:50.340Z,78.47
2022-12-26T04:46:23.575Z,78.33
2022-12-26T04:49:13.123Z,78.37
2022-12-26T04:51:41.685Z,78.69
2022-12-26T04:54:10.075Z,78.81
2022-12-26T04:56:39.161Z,78.97
2022-12-26T04:59:07.532Z,79.19
2022-12-26T05:01:54.541Z,79.36
2022-12-26T05:04:41.298Z,79.40
2022-12-26T05:07:52.579Z,79.82
2022-12-26T05:10:27.659Z,80.09
2022-12-26T05:12:56.852Z,79.78
2022-12-26T05:15:25.418Z,79.56
2022-12-26T05:18:11.875Z,79.54
2022-12-26T05:20:47.133Z,79.57
2022-12-26T05:23:40.804Z,79.99
2022-12-26T05:26:38.059Z,80.27
2022-12-26T05:29:06.573Z,80.28
2022-12-26T05:31:36.378Z,80.43
2022-12-26T05:34:11.350Z,80.54
2022-12-26T05:36:52.003Z,80.79
2022-12-26T05:39:20.758Z,80.71
2022-12-26T05:41:49.187Z,80.90
2022-12-26T05:44:17.641Z,80.87
2022-12-26T05:46:47.583Z,80.95
2022-12-26T05:49:15.863Z,80.98
2022-12-26T05:51:44.127Z,80.60
2022-12-26T05:54:12.395Z,80.61
2022-12-26T05:56:45.751Z,80.71
2022-12-26T05:59:17.355Z,80.76
2022-12-26T06:01:45.712Z,80.82
2022-12-26T06:04:14.019Z,80.79
2022-12-26T06:06:42.284Z,80.93
2022-12-26T06:09:10.677Z,81.04
2022-12-26T06:11:43.786Z,81.12
2022-12-26T06:14:17.256Z,81.21
2022-12-26T06:16:45.623Z,81.08
2022-12-26T06:19:13.945Z,80.98
2022-12-26T06:21:42.212Z,81.24
2022-12-26T06:24:10.532Z,81.16
2022-12-26T06:26:38.753Z,81.13
2022-12-26T06:29:07.006Z,81.30
2022-12-26T06:31:35.360Z,81.18
2022-12-26T06:34:03.643Z,81.43
2022-12-26T06:36:31.962Z,81.36
2022-12-26T06:39:01.930Z,81.33
2022-12-26T06:41:30.319Z,81.47
2022-12-26T06:43:58.872Z,81.38
2022-12-26T06:46:27.977Z,81.33
2022-12-26T06:48:56.257Z,81.30
2022-12-26T06:51:27.356Z,81.24
2022-12-26T06:53:56.032Z,81.23
2022-12-26T06:56:27.038Z,81.06
2022-12-26T06:58:59.997Z,81.11
2022-12-26T07:01:29.799Z,81.11
2022-12-26T07:03:59.113Z,81.23
2022-12-26T07:06:28.684Z,80.98
2022-12-26T07:09:10.425Z,81.15
2022-12-26T07:11:40.359Z,80.68
2022-12-26T07:14:09.368Z,80.56
2022-12-26T07:16:39.555Z,80.38
2022-12-26T07:19:08.545Z,80.85
2022-12-26T07:21:40.774Z,81.15
2022-12-26T07:24:21.622Z,81.27
2022-12-26T07:26:50.731Z,81.35
2022-12-26T07:29:19.328Z,81.37
2022-12-26T07:31:47.656Z,81.49
2022-12-26T07:34:16.179Z,81.48
2022-12-26T07:36:44.442Z,81.32
2022-12-26T07:39:15.481Z,80.81
2022-12-26T07:41:58.537Z,80.34
2022-12-26T07:44:28.638Z,80.21
2022-12-26T07:46:57.812Z,80.02
2022-12-26T07:49:26.527Z,79.89
2022-12-26T07:51:54.856Z,79.33
2022-12-26T07:54:23.291Z,78.58
2022-12-26T07:56:51.557Z,78.37
2022-12-26T07:59:19.903Z,78.25
2022-12-26T08:01:48.426Z,78.25
2022-12-26T08:04:16.834Z,78.51
2022-12-26T08:06:47.454Z,78.78
2022-12-26T08:09:17.390Z,79.02
2022-12-26T08:11:45.906Z,79.06
2022-12-26T08:14:17.457Z,78.62
2022-12-26T08:16:49.664Z,76.91
2022-12-26T08:19:19.822Z,77.37
2022-12-26T08:21:48.106Z,77.40
2022-12-26T08:24:16.858Z,77.49
2022-12-26T08:26:45.127Z,77.60
2022-12-26T08:29:13.336Z,77.85
2022-12-26T08:31:41.985Z,77.54
2022-12-26T08:34:10.819Z,76.90
2022-12-26T08:36:39.796Z,76.57
2022-12-26T08:39:08.083Z,76.69
2022-12-26T08:41:36.384Z,76.99
2022-12-26T08:46:52.972Z,76.92
2022-12-26T08:49:21.233Z,76.25
2022-12-26T08:51:49.514Z,75.59
2022-12-26T08:54:17.794Z,74.96
2022-12-26T08:56:46.047Z,74.88
2022-12-26T08:59:14.359Z,75.11
2022-12-26T09:01:42.863Z,75.73
2022-12-26T09:04:11.227Z,76.00
2022-12-26T09:06:40.686Z,76.89
2022-12-26T09:09:15.132Z,77.48
2022-12-26T09:11:44.357Z,77.66
2022-12-26T09:14:12.951Z,77.73
2022-12-26T09:16:50.737Z,77.48
2022-12-26T09:19:20.958Z,77.56
2022-12-26T09:22:10.940Z,77.18
2022-12-26T09:24:39.266Z,76.54
2022-12-26T09:27:07.665Z,75.97
2022-12-26T09:29:36.371Z,75.45
2022-12-26T09:32:04.719Z,75.56
2022-12-26T09:34:32.989Z,75.81
2022-12-26T09:37:01.291Z,76.38
2022-12-26T09:39:29.552Z,77.31
2022-12-26T09:42:21.309Z,77.63
2022-12-26T09:44:55.318Z,78.13
2022-12-26T09:47:34.872Z,77.99
2022-12-26T09:50:13.863Z,78.68
2022-12-26T09:52:53.078Z,79.21
2022-12-26T09:55:39.420Z,79.40
2022-12-26T09:58:31.516Z,79.23
2022-12-26T10:01:21.212Z,78.93
2022-12-26T10:03:53.554Z,79.55
2022-12-26T10:06:32.122Z,79.74
2022-12-26T10:09:19.391Z,79.83
2022-12-26T10:12:05.301Z,79.65
2022-12-26T10:15:04.442Z,79.88
2022-12-26T10:17:58.407Z,80.20
2022-12-26T10:20:44.847Z,80.94
2022-12-26T10:23:30.756Z,81.00
2022-12-26T10:26:09.301Z,80.82
2022-12-26T10:28:37.475Z,81.17
2022-12-26T10:31:21.914Z,81.40
2022-12-26T10:34:15.983Z,81.32
2022-12-26T10:36:58.577Z,81.39
2022-12-26T10:39:49.030Z,81.73
2022-12-26T10:42:31.893Z,81.78
2022-12-26T10:45:00.877Z,81.95
2022-12-26T10:47:32.148Z,81.99
2022-12-26T10:50:00.891Z,82.00
2022-12-26T10:52:36.440Z,81.65
2022-12-26T10:55:28.729Z,81.71
2022-12-26T10:57:54.973Z,81.63
2022-12-26T11:00:26.974Z,81.78
2022-12-26T11:03:16.855Z,81.21
2022-12-26T11:06:07.621Z,81.58
2022-12-26T11:08:44.188Z,81.51
2022-12-26T11:11:48.041Z,81.31
2022-12-26T11:14:40.799Z,81.35
2022-12-26T11:17:14.704Z,81.67
2022-12-26T11:19:45.452Z,81.54
2022-12-26T11:22:30.128Z,81.03
2022-12-26T11:25:19.261Z,80.74
2022-12-26T11:28:20.916Z,80.79
2022-12-26T11:30:49.758Z,80.86
2022-12-26T11:33:17.934Z,80.71
2022-12-26T11:36:10.792Z,79.86
2022-12-26T11:38:57.283Z,79.10
2022-12-26T11:41:34.213Z,79.06
2022-12-26T11:44:14.127Z,77.66
2022-12-26T11:46:50.362Z,77.45
2022-12-26T11:49:23.886Z,77.26
2022-12-26T11:51:58.924Z,76.41
2022-12-26T11:54:51.204Z,74.94
2022-12-26T11:57:23.240Z,75.15
2022-12-26T11:59:53.949Z,74.74
2022-12-26T12:02:31.891Z,74.14
2022-12-26T12:05:14.309Z,73.34
2022-12-26T12:07:53.360Z,73.24
2022-12-26T12:10:48.560Z,72.63
2022-12-26T12:13:30.345Z,72.83
2022-12-26T12:15:58.653Z,73.37
2022-12-26T12:18:42.096Z,73.54
2022-12-26T12:21:43.926Z,72.60
2022-12-26T12:24:21.945Z,71.90
2022-12-26T12:27:07.658Z,72.32
2022-12-26T12:29:47.761Z,72.03
2022-12-26T12:32:43.236Z,72.48
2022-12-26T12:35:35.923Z,72.99
2022-12-26T12:38:25.480Z,73.33
2022-12-26T12:41:26.097Z,73.44
2022-12-26T12:43:54.264Z,74.00
2022-12-26T12:46:31.681Z,73.60
2022-12-26T12:49:00.371Z,74.04
2022-12-26T12:51:53.760Z,73.85
2022-12-26T12:54:47.286Z,74.24
2022-12-26T12:57:58.746Z,74.53
2022-12-26T13:00:48.651Z,74.59
2022-12-26T13:03:35.539Z,74.58
2022-12-26T13:06:09.933Z,75.01
2022-12-26T13:08:50.557Z,75.50
2022-12-26T13:11:24.051Z,75.49
2022-12-26T13:14:14.960Z,75.42
2022-12-26T13:16:53.140Z,75.84
2022-12-26T13:19:26.349Z,75.47
2022-12-26T13:21:58.830Z,75.57
2022-12-26T13:24:32.458Z,75.67
2022-12-26T13:27:23.452Z,75.90
2022-12-26T13:29:51.855Z,76.47
2022-12-26T13:32:32.422Z,76.52
2022-12-26T13:35:02.772Z,76.96
2022-12-26T13:37:39.483Z,77.20
2022-12-26T13:40:16.075Z,77.05
2022-12-26T13:43:14.084Z,76.48
2022-12-26T13:45:42.343Z,77.11
2022-12-26T13:48:16.699Z,77.35
2022-12-26T13:51:04.137Z,77.53
2022-12-26T13:53:35.196Z,77.47
2022-12-26T13:56:06.255Z,77.50
2022-12-26T13:58:53.904Z,77.73
2022-12-26T14:01:46.445Z,78.12
2022-12-26T14:04:38.075Z,78.50
2022-12-26T14:07:15.672Z,78.94
2022-12-26T14:10:03.665Z,79.25
2022-12-26T14:12:46.913Z,79.48
2022-12-26T14:15:43.647Z,79.49
2022-12-26T14:18:39.882Z,80.27
2022-12-26T14:21:26.408Z,80.01
2022-12-26T14:24:15.204Z,80.09
2022-12-26T14:27:13.690Z,80.40
2022-12-26T14:29:59.419Z,80.62
2022-12-26T14:32:27.635Z,80.92
2022-12-26T14:35:25.338Z,80.93
2022-12-26T14:38:31.399Z,81.01
2022-12-26T14:41:06.297Z,81.10
2022-12-26T14:43:42.667Z,81.22
2022-12-26T14:46:33.472Z,80.93
2022-12-26T14:49:20.424Z,81.11
2022-12-26T14:51:48.867Z,81.18
2022-12-26T14:54:38.985Z,81.71
2022-12-26T14:57:44.661Z,81.45
2022-12-26T15:00:24.991Z,81.86
2022-12-26T15:03:13.281Z,81.87
2022-12-26T15:05:45.678Z,81.95
2022-12-26T15:08:46.265Z,81.98
2022-12-26T15:11:32.884Z,81.80
2022-12-26T15:14:31.266Z,82.31
2022-12-26T15:17:39.845Z,82.17
2022-12-26T15:20:32.254Z,82.27
2022-12-26T15:23:26.730Z,82.27
2022-12-26T15:26:06.780Z,82.17
2022-12-26T15:29:06.607Z,82.33
2022-12-26T15:31:54.559Z,82.55
2022-12-26T15:34:38.385Z,82.52
2022-12-26T15:37:18.598Z,82.68
2022-12-26T15:40:10.532Z,82.70
2022-12-26T15:42:54.022Z,83.12
2022-12-26T15:45:38.847Z,83.20
2022-12-26T15:48:13.086Z,83.33
2022-12-26T15:51:01.337Z,82.89
2022-12-26T15:53:51.137Z,82.78
2022-12-26T15:56:40.658Z,82.79
2022-12-26T15:59:14.335Z,82.80
2022-12-26T16:01:45.251Z,82.63
2022-12-26T16:04:26.658Z,82.95
2022-12-26T16:07:09.969Z,83.42
2022-12-26T16:09:48.287Z,83.23
2022-12-26T16:12:30.170Z,83.40
2022-12-26T16:15:02.989Z,83.37
2022-12-26T16:17:31.550Z,83.11
2022-12-26T16:19:59.892Z,83.03
2022-12-26T16:22:47.325Z,82.54
2022-12-26T16:25:25.115Z,82.58
2022-12-26T16:27:57.029Z,82.59
2022-12-26T16:30:31.893Z,83.27
2022-12-26T16:33:01.226Z,83.29
2022-12-26T16:35:40.203Z,82.85
2022-12-26T16:38:15.991Z,82.79
2022-12-26T16:40:50.017Z,82.91
2022-12-26T16:43:28.862Z,82.79
2022-12-26T16:46:04.451Z,82.60
2022-12-26T16:48:34.711Z,82.39
2022-12-26T16:51:06.175Z,82.31
2022-12-26T16:53:37.449Z,82.61
2022-12-26T16:56:30.350Z,83.15
2022-12-26T16:59:17.057Z,82.79
2022-12-26T17:01:56.644Z,82.85
2022-12-26T17:04:30.434Z,83.12
2022-12-26T17:07:10.131Z,83.03
2022-12-26T17:09:46.669Z,83.10
2022-12-26T17:12:39.712Z,82.94
2022-12-26T17:15:09.400Z,83.01
2022-12-26T17:17:39.721Z,82.86
2022-12-26T17:20:26.210Z,82.68
2022-12-26T17:22:56.077Z,82.61
2022-12-26T17:25:29.102Z,82.54
2022-12-26T17:28:09.661Z,82.56
2022-12-26T17:30:44.560Z,82.46
2022-12-26T17:33:30.008Z,82.44
2022-12-26T17:38:56.725Z,82.58
2022-12-26T17:41:25.067Z,82.44
2022-12-26T17:43:53.709Z,82.49
2022-12-26T17:46:22.048Z,82.84
2022-12-26T17:48:50.401Z,82.71
2022-12-26T17:51:20.310Z,82.79
2022-12-26T17:53:51.616Z,83.00
2022-12-26T17:56:24.231Z,82.78
2022-12-26T17:58:52.627Z,82.72
2022-12-26T18:01:22.292Z,82.62
2022-12-26T18:03:53.766Z,82.58
2022-12-26T18:06:22.716Z,82.52
2022-12-26T18:08:51.963Z,82.53
2022-12-26T18:11:20.408Z,82.16
2022-12-26T18:13:48.742Z,82.28
2022-12-26T18:16:20.126Z,82.32
2022-12-26T18:18:49.303Z,82.58
2022-12-26T18:21:17.588Z,82.56
2022-12-26T18:23:45.904Z,82.61
2022-12-26T18:26:32.459Z,82.38
2022-12-26T18:29:00.892Z,82.49
2022-12-26T18:31:29.630Z,82.10
2022-12-26T18:33:58.414Z,82.19
2022-12-26T18:36:32.686Z,82.11
2022-12-26T18:39:01.227Z,82.27
2022-12-26T18:41:29.620Z,82.14
2022-12-26T18:43:59.018Z,81.87
2022-12-26T18:46:29.777Z,81.35
2022-12-26T18:48:58.414Z,81.15
2022-12-26T18:51:28.658Z,80.80
2022-12-26T18:53:56.880Z,80.55
2022-12-26T18:56:25.378Z,80.53
2022-12-26T18:58:57.724Z,80.28
2022-12-26T19:01:27.037Z,80.03
2022-12-26T19:03:56.030Z,79.90
2022-12-26T19:06:27.208Z,79.59
2022-12-26T19:08:56.418Z,79.28
2022-12-26T19:11:26.041Z,79.55
2022-12-26T19:13:54.906Z,79.69
2022-12-26T19:16:24.190Z,79.60
2022-12-26T19:18:52.791Z,79.71
2022-12-26T19:21:21.127Z,79.66
2022-12-26T19:23:51.853Z,79.42
2022-12-26T19:26:20.774Z,79.23
2022-12-26T19:28:57.214Z,79.54
2022-12-26T19:31:25.780Z,79.64
2022-12-26T19:33:54.020Z,79.53
2022-12-26T19:36:22.426Z,79.47
2022-12-26T19:38:50.707Z,79.76
2022-12-26T19:41:19.009Z,79.54
2022-12-26T19:43:47.331Z,79.43
2022-12-26T19:46:16.952Z,79.54
2022-12-26T19:48:45.731Z,79.57
2022-12-26T19:51:16.626Z,79.64
2022-12-26T19:53:47.086Z,79.27
2022-12-26T19:56:22.061Z,79.01
2022-12-26T19:58:56.081Z,78.84
2022-12-26T20:01:28.196Z,78.71
2022-12-26T20:03:57.841Z,78.12
2022-12-26T20:06:28.003Z,78.27
2022-12-26T20:08:59.778Z,78.30
2022-12-26T20:11:34.451Z,79.00
2022-12-26T20:14:04.909Z,79.01
2022-12-26T20:19:23.177Z,79.76
2022-12-26T20:21:51.649Z,80.14
2022-12-26T20:24:22.217Z,80.38
2022-12-26T20:26:51.577Z,80.41
2022-12-26T20:29:20.108Z,80.50
2022-12-26T20:31:48.705Z,80.34
2022-12-26T20:34:17.379Z,80.26
2022-12-26T20:36:45.867Z,80.23
2022-12-26T20:39:16.993Z,80.28
2022-12-26T20:41:45.963Z,80.12
2022-12-26T20:44:15.795Z,79.87
2022-12-26T20:46:44.965Z,79.87
2022-12-26T20:49:13.834Z,79.64
2022-12-26T20:51:44.601Z,79.38
2022-12-26T20:54:14.766Z,79.20
2022-12-26T20:56:44.595Z,79.38
2022-12-26T20:59:13.079Z,79.43
2022-12-26T21:01:42.053Z,79.41
2022-12-26T21:04:18.104Z,79.30
2022-12-26T21:06:48.160Z,79.18
2022-12-26T21:09:17.243Z,79.20
2022-12-26T21:11:46.345Z,79.38
2022-12-26T21:14:18.326Z,79.29
2022-12-26T21:16:50.524Z,79.14
2022-12-26T21:19:20.498Z,79.21
2022-12-26T21:21:52.663Z,78.69
2022-12-26T21:24:35.205Z,78.61
2022-12-26T21:27:03.686Z,78.52
2022-12-26T21:29:34.996Z,78.52
2022-12-26T21:32:05.223Z,78.26
2022-12-26T21:34:34.889Z,78.16
2022-12-26T21:37:21.928Z,78.07
2022-12-26T21:39:51.488Z,77.96
2022-12-26T21:42:20.379Z,77.63
2022-12-26T21:44:49.140Z,77.83
2022-12-26T21:47:17.509Z,77.73
2022-12-26T21:49:45.822Z,77.77
2022-12-26T21:52:16.824Z,77.59
2022-12-26T21:55:03.754Z,77.52
2022-12-26T21:57:35.119Z,77.43
2022-12-26T22:00:05.017Z,77.23
2022-12-26T22:02:54.754Z,77.32
2022-12-26T22:05:28.188Z,77.29
2022-12-26T22:08:01.032Z,77.00
2022-12-26T22:10:52.553Z,76.65
2022-12-26T22:13:22.885Z,76.93
2022-12-26T22:16:05.490Z,77.08
2022-12-26T22:18:39.355Z,76.63
2022-12-26T22:21:22.728Z,76.23
2022-12-26T22:23:51.993Z,76.07
2022-12-26T22:26:25.359Z,76.33
2022-12-26T22:28:53.749Z,76.05
2022-12-26T22:31:25.792Z,75.88
2022-12-26T22:34:06.744Z,75.59
2022-12-26T22:36:38.481Z,75.91
2022-12-26T22:39:07.030Z,75.69
2022-12-26T22:41:35.895Z,75.66
2022-12-26T22:44:04.268Z,75.56
2022-12-26T22:46:32.698Z,75.48
2022-12-26T22:49:01.090Z,75.63
2022-12-26T22:51:29.528Z,75.55
2022-12-26T22:53:59.936Z,75.58
2022-12-26T22:56:32.651Z,75.64
2022-12-26T22:59:01.478Z,75.61
2022-12-26T23:01:33.097Z,75.71
2022-12-26T23:04:02.596Z,75.89
2022-12-26T23:06:38.934Z,75.66
2022-12-26T23:09:13.673Z,75.96
2022-12-26T23:11:42.555Z,76.05
2022-12-26T23:14:14.175Z,76.08
2022-12-26T23:16:45.333Z,76.20
2022-12-26T23:19:52.641Z,76.20
2022-12-26T23:22:21.521Z,76.59
2022-12-26T23:24:49.837Z,76.71
2022-12-26T23:27:36.913Z,76.57
2022-12-26T23:30:21.895Z,76.77
2022-12-26T23:32:54.760Z,76.82
2022-12-26T23:35:24.479Z,76.84
2022-12-26T23:37:53.172Z,76.96
2022-12-26T23:40:22.325Z,76.86
2022-12-26T23:42:50.649Z,76.89
2022-12-26T23:45:19.267Z,77.14
2022-12-26T23:47:47.650Z,77.16
2022-12-26T23:50:17.841Z,77.36
2022-12-26T23:52:46.484Z,77.44
2022-12-26T23:55:14.962Z,77.65
2022-12-26T23:57:43.229Z,77.74
